»·PEaware :: DAL2775 KLAX-KSFO

DAL2775 :: KLAX-KSFO

FLIGHT INFORMATION

Flight Status: Arrived
Operator:
Delta Air Lines
More flights by this operator :: More flights under this callsign
Pilot: Chris H. (15401)
Aircraft: BOEING 737-800
(B738)
More flights by this aircraft type
Origin: KLAX Los Angeles Intl
United States
Destination: KSFO San Francisco Intl
United States
More flights between these airports :: More routes between these airports
Route: SUMMR1 STOKD SERFR SERFR3
File this flight plan on PilotEdge
Remarks: RMK / POWERED BY SIMBRIEF
Altitude:
(Current/Filed)
38,000ft
Speed:
(Current/Filed)
466kts
Departed: 10-Oct-18 07:30 PM
Arrived: 10-Oct-18 08:27 PM
Distance/Time
Traveled:
293nm/0:57
Distance/Time
To Go:
Arrived

Flight Plot

Page will automatically refresh every two minutes.

Flight plan parsing failed; only flown route is shown


Map Options




Map Legend


Flown Route
Filed Route
Departure Airport
Arrival Airport
Navaid (VOR, NDB)
Fix

Horizontal Profiles

Position Reports

Time Latitude Longitude Heading Altitude Ground
Speed
10-Oct-18 19:15 33.940499 -118.405005 84 134ft 0kts
10-Oct-18 19:16 33.940499 -118.405005 84 134ft 0kts
10-Oct-18 19:17 33.940499 -118.405005 84 134ft 0kts
10-Oct-18 19:18 33.940498 -118.405011 84 134ft 0kts
10-Oct-18 19:19 33.940552 -118.405841 136 134ft 2kts
10-Oct-18 19:20 33.940779 -118.405964 173 134ft 0kts
10-Oct-18 19:21 33.940779 -118.405964 173 134ft 0kts
10-Oct-18 19:22 33.940777 -118.405964 173 134ft 0kts
10-Oct-18 19:23 33.940529 -118.405801 146 134ft 0kts
10-Oct-18 19:24 33.940526 -118.405798 146 134ft 0kts
10-Oct-18 19:25 33.940066 -118.405552 167 134ft 0kts
10-Oct-18 19:27 33.940059 -118.405550 167 134ft 0kts
10-Oct-18 19:28 33.938371 -118.404327 84 134ft 13kts
10-Oct-18 19:29 33.939346 -118.395321 82 134ft 30kts
10-Oct-18 19:30 33.940125 -118.387181 83 134ft 22kts
10-Oct-18 19:31 33.940625 -118.380480 120 134ft 13kts
10-Oct-18 19:32 33.938390 -118.395287 263 156ft 153kts
10-Oct-18 19:33 33.932319 -118.454193 261 2664ft 228kts
10-Oct-18 19:34 33.925109 -118.539927 263 4866ft 270kts
10-Oct-18 19:35 33.917720 -118.630022 264 5180ft 268kts
10-Oct-18 19:36 33.917275 -118.706893 269 7927ft 283kts
10-Oct-18 19:37 33.917010 -118.821497 269 11653ft 316kts
10-Oct-18 19:38 33.919449 -118.917166 271 13590ft 350kts
10-Oct-18 19:39 33.938221 -119.044669 298 18442ft 339kts
10-Oct-18 19:40 34.005928 -119.128270 313 21407ft 356kts
10-Oct-18 19:41 34.068603 -119.198253 313 22861ft 373kts
10-Oct-18 19:42 34.136628 -119.274490 313 24748ft 379kts
10-Oct-18 19:43 34.209443 -119.356342 313 26801ft 389kts
10-Oct-18 19:44 34.268370 -119.422290 313 28932ft 381kts
10-Oct-18 19:45 34.323154 -119.483804 312 30696ft 376kts
10-Oct-18 19:46 34.399277 -119.569598 312 32706ft 377kts
10-Oct-18 19:47 34.479291 -119.660089 313 33229ft 411kts
10-Oct-18 19:48 34.579481 -119.773783 313 34206ft 424kts
10-Oct-18 19:49 34.651078 -119.855281 313 35528ft 422kts
10-Oct-18 19:50 34.736234 -119.952478 313 36978ft 419kts
10-Oct-18 19:51 34.821272 -120.049831 313 37910ft 424kts
10-Oct-18 19:52 34.907727 -120.149104 313 37911ft 426kts
10-Oct-18 19:53 34.975050 -120.226619 313 37909ft 427kts
10-Oct-18 19:54 35.061233 -120.326120 313 37907ft 427kts
10-Oct-18 19:55 35.147327 -120.425823 313 37904ft 426kts
10-Oct-18 19:56 35.247834 -120.542605 313 37900ft 426kts
10-Oct-18 19:57 35.319305 -120.625663 313 37900ft 426kts
10-Oct-18 19:58 35.405258 -120.726319 314 37899ft 426kts
10-Oct-18 19:59 35.490842 -120.825510 317 37899ft 427kts
10-Oct-18 20:00 35.586131 -120.914189 320 37899ft 428kts
10-Oct-18 20:01 35.697029 -121.016930 320 37895ft 427kts
10-Oct-18 20:02 35.775771 -121.090290 320 37890ft 426kts
10-Oct-18 20:03 35.870397 -121.178353 320 37887ft 425kts
10-Oct-18 20:04 35.964164 -121.266422 320 36472ft 422kts
10-Oct-18 20:05 36.047815 -121.345286 320 33678ft 424kts
10-Oct-18 20:06 36.163028 -121.439284 327 29885ft 421kts
10-Oct-18 20:07 36.243978 -121.501861 327 27832ft 404kts
10-Oct-18 20:08 36.281608 -121.531102 327 26878ft 397kts
10-Oct-18 20:09 36.373365 -121.603033 327 24529ft 384kts
10-Oct-18 20:10 36.462198 -121.673023 327 22641ft 365kts
10-Oct-18 20:11 36.544864 -121.738116 327 21201ft 347kts
10-Oct-18 20:12 36.639535 -121.813106 327 18975ft 344kts
10-Oct-18 20:13 36.720007 -121.876989 329 17096ft 338kts
10-Oct-18 20:14 36.808321 -121.913203 347 15088ft 335kts
10-Oct-18 20:15 36.881997 -121.933437 347 13963ft 323kts
10-Oct-18 20:16 36.970863 -121.959379 344 12605ft 320kts
10-Oct-18 20:17 37.050002 -121.990776 342 12173ft 282kts
10-Oct-18 20:18 37.123752 -122.019934 343 11083ft 275kts
10-Oct-18 20:19 37.196694 -122.048610 343 9789ft 275kts
10-Oct-18 20:20 37.269895 -122.077362 343 8517ft 273kts
10-Oct-18 20:21 37.341804 -122.105670 343 7334ft 268kts
10-Oct-18 20:22 37.411643 -122.131439 346 6300ft 244kts
10-Oct-18 20:23 37.469829 -122.150981 345 5816ft 192kts
10-Oct-18 20:24 37.521090 -122.168878 344 4322ft 190kts
10-Oct-18 20:25 37.559272 -122.233431 296 2174ft 187kts
10-Oct-18 20:26 37.578155 -122.278444 297 1407ft 164kts
10-Oct-18 20:27 37.598062 -122.325843 297 620ft 143kts
10-Oct-18 20:28 37.616014 -122.368570 298 21ft 95kts
10-Oct-18 20:29 37.619010 -122.377774 267 21ft 0kts
10-Oct-18 20:30 37.618948 -122.379134 263 21ft 16kts
10-Oct-18 20:31 37.615583 -122.380381 209 21ft 20kts
10-Oct-18 20:32 37.612024 -122.382703 208 21ft 14kts
10-Oct-18 20:33 37.611898 -122.384755 26 21ft 5kts
10-Oct-18 20:34 37.612232 -122.384074 59 21ft 0kts
10-Oct-18 20:35 37.612232 -122.384074 59 21ft 0kts
10-Oct-18 20:36 37.612232 -122.384074 59 21ft 0kts
10-Oct-18 20:37 37.612232 -122.384074 59 21ft 0kts
10-Oct-18 20:38 37.612232 -122.384074 59 21ft 0kts

Navigation Log

Ident Type
Flight plan parsing failed, navigation log unavailable